Vega Alta, PR

04:21 PM AST del 29 Gennaio 2015 (GMT -0400)
Goodwinds at Dorado Beach Resort | Change Station
CLOSE
Current Station
Stazione meteo personale
Location: Dorado, PR
Altitudine: 0 ft
Stazioni meteo nelle vicinanze

Alt. 0 ft 18.48 °N, 66.30 °W | Updated 36 seconds ago

Scattered Clouds
Nubi sparse
79.2 °F
Sembra 82 °F
N
6.0
Vento Variabile Vento da Ovest
Gusts 8.0 mph

Oggi
Massima -- | Minima -- °F
--% Possibilità di precip.
Ieri
Massima -- | Minima -- °F
Precip. -- in
6:59 AM 6:17 PM
Gobba a ponente, 77% visible
Pressione 29.97 in
Visibilità 10.0 miglia
Nuvole Alcuni 4000 ft
Nubi sparse 10000 ft
Indice di calore 82 °F
Punto di rugiada 72 °F
Umidità 78%
Piovosità 0.00 in
Spessore del manto nevoso Non disponibile.
Raggi UV 2 fuori da 12
Polline Non disponibile.
Qualità dell'aria Non disponibile.
Flu Activity Non disponibile.
METAR TJSJ 291956Z 05008KT 10SM FEW040 SCT100 28/21 A2997 RMK AO2 SLP148 SHRA DSNT S SW T02830211

More Conditions Fewer Conditions

Pressione 29.97 in
Visibilità 10.0 miglia
Nuvole Alcuni 4000 ft
Nubi sparse 10000 ft
Indice di calore 82 °F
Punto di rugiada 72 °F
Umidità 78%
Piovosità 0.00 in
Spessore del manto nevoso Non disponibile.
Raggi UV 2 fuori da 12
Polline Non disponibile.
Qualità dell'aria Non disponibile.
Flu Activity Non disponibile.
METAR TJSJ 291956Z 05008KT 10SM FEW040 SCT100 28/21 A2997 RMK AO2 SLP148 SHRA DSNT S SW T02830211

More Conditions Fewer Conditions

10-Day Weather Forecast

Almanac

Astronomia

Jan. 29, 2015 Alba Tramonto
Ora attuale
Crepuscolo civile
Crepuscolo nautico
Crepuscolo astronomico
Luna
Estensione della luce visibile
Lunghezza del giorno
Tomorrow will be .
, % of the Moon is Illuminated

Gli estremi di oggi

State Highs State Lows

Community

WunderPhotos

Upload Photos

1,791,577 foto caricate!

WunderBlogs® & News

Nearby

Qualità dell'aria

  Qualità dell'aria Indice AQ Inquinante
Not available.

Profondità neve

Stazione Profondità Altitudine

Attività sismica

Città  Distanza Mag. Data & Ora
Minimo Magnitudo Mostrato è 2.5.

Temperature delle acque costiere

Località Temperatura

Stazioni meteo nelle vicinanze